createdAt,value
2022-11-23T00:01:39.808Z,4.91
2022-11-23T00:04:11.457Z,4.90
2022-11-23T00:06:40.531Z,4.89
2022-11-23T00:09:09.624Z,4.89
2022-11-23T00:11:38.246Z,4.89
2022-11-23T00:14:07.996Z,4.91
2022-11-23T00:16:36.437Z,4.92
2022-11-23T00:19:05.269Z,4.93
2022-11-23T00:21:34.064Z,4.94
2022-11-23T00:24:02.392Z,4.92
2022-11-23T00:26:30.797Z,4.90
2022-11-23T00:28:59.125Z,4.89
2022-11-23T00:31:28.981Z,4.88
2022-11-23T00:33:58.173Z,4.86
2022-11-23T00:36:27.679Z,4.87
2022-11-23T00:38:57.659Z,4.87
2022-11-23T00:41:27.757Z,4.86
2022-11-23T00:43:56.252Z,4.86
2022-11-23T00:46:26.042Z,4.87
2022-11-23T00:48:57.707Z,4.88
2022-11-23T00:51:28.000Z,4.90
2022-11-23T00:53:56.624Z,4.90
2022-11-23T00:56:25.122Z,4.87
2022-11-23T00:58:55.186Z,4.86
2022-11-23T01:01:25.498Z,4.83
2022-11-23T01:03:58.143Z,4.80
2022-11-23T01:06:29.081Z,4.77
2022-11-23T01:08:59.905Z,4.75
2022-11-23T01:11:30.554Z,4.74
2022-11-23T01:13:59.861Z,4.73
2022-11-23T01:16:30.384Z,4.71
2022-11-23T01:19:01.577Z,4.70
2022-11-23T01:21:31.448Z,4.69
2022-11-23T01:23:59.921Z,4.68
2022-11-23T01:26:28.268Z,4.66
2022-11-23T01:28:57.008Z,4.66
2022-11-23T01:31:26.725Z,4.67
2022-11-23T01:33:56.649Z,4.67
2022-11-23T01:36:28.146Z,4.69
2022-11-23T01:38:56.962Z,4.70
2022-11-23T01:41:26.877Z,4.70
2022-11-23T01:43:56.324Z,4.69
2022-11-23T01:46:24.652Z,4.70
2022-11-23T01:48:56.705Z,4.69
2022-11-23T01:51:31.704Z,4.69
2022-11-23T01:54:03.477Z,4.68
2022-11-23T01:56:36.655Z,4.66
2022-11-23T01:59:09.589Z,4.65
2022-11-23T02:01:38.271Z,4.63
2022-11-23T02:04:09.881Z,4.61
2022-11-23T02:06:41.609Z,4.61
2022-11-23T02:09:10.029Z,4.61
2022-11-23T02:11:38.352Z,4.61
2022-11-23T02:14:06.858Z,4.62
2022-11-23T02:16:36.131Z,4.61
2022-11-23T02:19:07.337Z,4.59
2022-11-23T02:21:35.763Z,4.59
2022-11-23T02:24:12.982Z,4.59
2022-11-23T02:26:43.289Z,4.61
2022-11-23T02:29:17.057Z,4.62
2022-11-23T02:31:45.390Z,4.61
2022-11-23T02:34:13.726Z,4.62
2022-11-23T02:36:43.692Z,4.61
2022-11-23T02:39:14.773Z,4.61
2022-11-23T02:41:48.164Z,4.60
2022-11-23T02:44:27.495Z,4.57
2022-11-23T02:46:56.179Z,4.52
2022-11-23T02:49:24.630Z,4.49
2022-11-23T02:51:53.401Z,4.48
2022-11-23T02:54:21.897Z,4.45
2022-11-23T02:56:51.618Z,4.43
2022-11-23T02:59:20.045Z,4.41
2022-11-23T03:01:48.610Z,4.40
2022-11-23T03:04:16.968Z,4.42
2022-11-23T03:06:45.498Z,4.43
2022-11-23T03:09:13.804Z,4.43
2022-11-23T03:11:42.139Z,4.44
2022-11-23T03:14:12.201Z,4.42
2022-11-23T03:16:40.523Z,4.44
2022-11-23T03:19:08.917Z,4.43
2022-11-23T03:21:37.584Z,4.41
2022-11-23T03:24:06.526Z,4.40
2022-11-23T03:26:36.207Z,4.37
2022-11-23T03:29:04.809Z,4.38
2022-11-23T03:31:34.521Z,4.36
2022-11-23T03:34:02.834Z,4.37
2022-11-23T03:36:31.207Z,4.33
2022-11-23T03:38:59.585Z,4.30
2022-11-23T03:41:27.989Z,4.26
2022-11-23T03:43:56.321Z,4.24
2022-11-23T03:46:24.568Z,4.23
2022-11-23T03:48:54.290Z,4.21
2022-11-23T03:51:23.047Z,4.19
2022-11-23T03:53:51.345Z,4.19
2022-11-23T03:56:20.045Z,4.16
2022-11-23T03:58:48.421Z,4.14
2022-11-23T04:01:16.801Z,4.12
2022-11-23T04:03:45.383Z,4.12
2022-11-23T04:06:15.066Z,4.12
2022-11-23T04:08:43.370Z,4.12
2022-11-23T04:11:11.800Z,4.13
2022-11-23T04:13:40.236Z,4.13
2022-11-23T04:16:09.076Z,4.14
2022-11-23T04:18:37.406Z,4.11
2022-11-23T04:21:05.982Z,4.10
2022-11-23T04:23:35.866Z,4.08
2022-11-23T04:26:04.536Z,4.08
2022-11-23T04:28:32.922Z,4.09
2022-11-23T04:31:01.241Z,4.07
2022-11-23T04:33:31.570Z,4.06
2022-11-23T04:36:00.008Z,4.06
2022-11-23T04:38:28.492Z,4.07
2022-11-23T04:40:58.176Z,4.07
2022-11-23T04:43:26.563Z,4.05
2022-11-23T04:45:55.019Z,4.07
2022-11-23T04:48:23.348Z,4.08
2022-11-23T04:50:55.427Z,4.08
2022-11-23T04:53:24.033Z,4.08
2022-11-23T04:55:52.407Z,4.07
2022-11-23T04:58:22.046Z,4.06
2022-11-23T05:00:50.628Z,4.05
2022-11-23T05:03:18.976Z,4.05
2022-11-23T05:05:47.335Z,4.05
2022-11-23T05:08:15.676Z,4.05
2022-11-23T05:10:44.871Z,4.06
2022-11-23T05:13:13.212Z,4.06
2022-11-23T05:15:42.996Z,4.04
2022-11-23T05:18:13.124Z,4.04
2022-11-23T05:20:41.622Z,4.02
2022-11-23T05:23:11.056Z,4.02
2022-11-23T05:25:39.793Z,4.01
2022-11-23T05:28:38.021Z,4.00
2022-11-23T05:30:58.207Z,4.02
2022-11-23T05:33:26.565Z,4.02
2022-11-23T05:35:54.879Z,4.04
2022-11-23T05:38:23.391Z,4.04
2022-11-23T05:40:51.774Z,4.04
2022-11-23T05:43:20.267Z,4.02
2022-11-23T05:45:48.609Z,3.99
2022-11-23T05:48:19.313Z,3.97
2022-11-23T05:50:47.702Z,3.95
2022-11-23T05:53:16.273Z,3.93
2022-11-23T05:55:45.190Z,3.92
2022-11-23T05:58:13.500Z,3.91
2022-11-23T06:00:41.864Z,3.91
2022-11-23T06:03:10.233Z,3.90
2022-11-23T06:05:40.449Z,3.88
2022-11-23T06:08:08.735Z,3.86
2022-11-23T06:10:37.054Z,3.83
2022-11-23T06:13:05.580Z,3.81
2022-11-23T06:15:34.387Z,3.79
2022-11-23T06:18:02.887Z,3.77
2022-11-23T06:20:31.478Z,3.77
2022-11-23T06:23:01.351Z,3.77
2022-11-23T06:25:30.049Z,3.80
2022-11-23T06:27:59.856Z,3.79
2022-11-23T06:30:30.402Z,3.79
2022-11-23T06:32:59.459Z,3.81
2022-11-23T06:35:27.796Z,3.83
2022-11-23T06:37:56.124Z,3.83
2022-11-23T06:40:25.815Z,3.82
2022-11-23T06:42:59.682Z,3.83
2022-11-23T06:45:28.512Z,3.84
2022-11-23T06:47:57.486Z,3.84
2022-11-23T06:50:25.820Z,3.83
2022-11-23T06:52:57.415Z,3.86
2022-11-23T06:55:27.410Z,3.88
2022-11-23T06:57:57.952Z,3.90
2022-11-23T07:00:26.394Z,3.90
2022-11-23T07:02:55.353Z,3.93
2022-11-23T07:05:24.676Z,3.96
2022-11-23T07:07:53.088Z,3.99
2022-11-23T07:10:21.596Z,4.02
2022-11-23T07:12:51.430Z,4.02
2022-11-23T07:15:19.833Z,4.05
2022-11-23T07:17:48.168Z,4.10
2022-11-23T07:20:17.736Z,4.16
2022-11-23T07:22:46.056Z,4.20
2022-11-23T07:25:18.312Z,4.22
2022-11-23T07:27:46.693Z,4.26
2022-11-23T07:30:17.359Z,4.28
2022-11-23T07:32:45.709Z,4.32
2022-11-23T07:35:14.007Z,4.36
2022-11-23T07:37:42.288Z,4.39
2022-11-23T07:40:11.574Z,4.40
2022-11-23T07:42:44.867Z,4.41
2022-11-23T07:45:13.936Z,4.42
2022-11-23T07:47:43.739Z,4.45
2022-11-23T07:50:14.153Z,4.46
2022-11-23T07:52:42.464Z,4.47
2022-11-23T07:55:11.140Z,4.46
2022-11-23T07:57:39.613Z,4.49
2022-11-23T08:00:09.623Z,4.51
2022-11-23T08:02:38.085Z,4.54
2022-11-23T08:05:13.897Z,4.56
2022-11-23T08:07:43.221Z,4.59
2022-11-23T08:10:12.014Z,4.61
2022-11-23T08:12:42.659Z,4.62
2022-11-23T08:15:11.885Z,4.65
2022-11-23T08:17:40.205Z,4.66
2022-11-23T08:20:11.090Z,4.66
2022-11-23T08:22:39.417Z,4.67
2022-11-23T08:25:08.532Z,4.70
2022-11-23T08:27:36.928Z,4.73
2022-11-23T08:30:06.257Z,4.77
2022-11-23T08:32:34.588Z,4.80
2022-11-23T08:35:02.879Z,4.84
2022-11-23T08:37:34.833Z,4.86
2022-11-23T08:40:03.188Z,4.90
2022-11-23T08:42:31.476Z,4.92
2022-11-23T08:45:03.116Z,4.93
2022-11-23T08:47:33.129Z,4.96
2022-11-23T08:50:01.538Z,4.99
2022-11-23T08:52:29.932Z,5.04
2022-11-23T08:54:59.869Z,5.10
2022-11-23T08:57:28.761Z,5.13
2022-11-23T08:59:57.865Z,5.17
2022-11-23T09:02:26.173Z,5.23
2022-11-23T09:04:54.536Z,5.31
2022-11-23T09:07:22.973Z,5.37
2022-11-23T09:09:51.386Z,5.41
2022-11-23T09:12:21.071Z,5.48
2022-11-23T09:14:49.437Z,5.52
2022-11-23T09:17:17.757Z,5.59
2022-11-23T09:19:46.080Z,5.64
2022-11-23T09:22:14.460Z,5.71
2022-11-23T09:24:42.793Z,5.75
2022-11-23T09:27:11.219Z,5.77
2022-11-23T09:29:40.926Z,5.78
2022-11-23T09:32:09.271Z,5.79
2022-11-23T09:34:37.621Z,5.79
2022-11-23T09:37:06.322Z,5.82
2022-11-23T09:39:34.680Z,5.85
2022-11-23T09:42:47.563Z,5.93
2022-11-23T09:45:23.808Z,6.11
2022-11-23T09:48:10.213Z,6.26
2022-11-23T09:50:48.054Z,6.40
2022-11-23T09:53:21.034Z,6.50
2022-11-23T09:55:52.625Z,6.56
2022-11-23T09:58:23.421Z,6.61
2022-11-23T10:01:01.252Z,6.63
2022-11-23T10:03:30.419Z,6.64
2022-11-23T10:06:06.428Z,6.64
2022-11-23T10:08:44.211Z,6.64
2022-11-23T10:11:42.548Z,6.63
2022-11-23T10:14:27.217Z,6.64
2022-11-23T10:17:05.016Z,6.67
2022-11-23T10:19:47.209Z,6.70
2022-11-23T10:22:22.577Z,6.73
2022-11-23T10:24:54.132Z,6.76
2022-11-23T10:27:25.045Z,6.77
2022-11-23T10:29:53.461Z,6.78
2022-11-23T10:32:31.447Z,6.80
2022-11-23T10:35:05.401Z,6.81
2022-11-23T10:37:34.822Z,6.85
2022-11-23T10:40:03.290Z,6.86
2022-11-23T10:42:35.068Z,6.90
2022-11-23T10:45:04.610Z,6.94
2022-11-23T10:47:40.532Z,6.97
2022-11-23T10:50:29.730Z,7.02
2022-11-23T10:53:00.569Z,7.04
2022-11-23T10:55:31.119Z,7.07
2022-11-23T10:57:59.832Z,7.12
2022-11-23T11:00:31.098Z,7.16
2022-11-23T11:03:03.293Z,7.14
2022-11-23T11:08:25.065Z,7.16
2022-11-23T11:10:59.588Z,7.16
2022-11-23T11:13:31.114Z,7.14
2022-11-23T11:16:02.084Z,7.14
2022-11-23T11:18:33.858Z,7.14
2022-11-23T11:21:06.804Z,7.18
2022-11-23T11:23:40.157Z,7.20
2022-11-23T11:26:19.336Z,7.22
2022-11-23T11:28:51.561Z,7.24
2022-11-23T11:31:28.818Z,7.26
2022-11-23T11:34:08.304Z,7.23
2022-11-23T11:36:42.057Z,7.26
2022-11-23T11:39:19.399Z,7.43
2022-11-23T11:41:50.360Z,7.61
2022-11-23T11:44:22.353Z,7.76
2022-11-23T11:46:57.804Z,7.90
2022-11-23T11:49:32.391Z,8.01
2022-11-23T11:52:07.161Z,8.11
2022-11-23T11:54:43.887Z,8.20
2022-11-23T11:57:20.720Z,8.30
2022-11-23T11:59:52.952Z,8.40
2022-11-23T12:02:25.960Z,8.46
2022-11-23T12:05:08.755Z,8.54
2022-11-23T12:07:40.954Z,8.59
2022-11-23T12:10:16.553Z,8.65
2022-11-23T12:12:49.366Z,8.73
2022-11-23T12:15:47.904Z,8.77
2022-11-23T12:18:25.713Z,8.84
2022-11-23T12:21:03.843Z,8.87
2022-11-23T12:23:48.157Z,8.98
2022-11-23T12:26:27.618Z,9.12
2022-11-23T12:29:27.125Z,9.29
2022-11-23T12:32:04.338Z,9.48
2022-11-23T12:34:53.191Z,9.68
2022-11-23T12:37:36.010Z,9.85
2022-11-23T12:40:21.674Z,10.11
2022-11-23T12:42:52.837Z,10.34
2022-11-23T12:45:48.452Z,10.45
2022-11-23T12:48:28.066Z,10.57
2022-11-23T12:51:08.961Z,10.71
2022-11-23T12:53:51.253Z,10.81
2022-11-23T12:56:34.097Z,10.94
2022-11-23T12:59:02.612Z,11.07
2022-11-23T13:01:36.150Z,11.07
2022-11-23T13:04:46.134Z,11.05
2022-11-23T13:07:49.078Z,11.01
2022-11-23T13:10:29.458Z,10.98
2022-11-23T13:13:18.865Z,10.86
2022-11-23T13:16:12.118Z,10.78
2022-11-23T13:19:04.697Z,10.80
2022-11-23T13:21:38.785Z,10.88
2022-11-23T13:24:26.060Z,10.89
2022-11-23T13:27:32.442Z,10.79
2022-11-23T13:30:11.013Z,10.79
2022-11-23T13:32:53.950Z,10.86
2022-11-23T13:35:52.724Z,10.84
2022-11-23T13:38:45.340Z,10.88
2022-11-23T13:42:01.609Z,10.97
2022-11-23T13:44:33.472Z,11.02
2022-11-23T13:47:05.682Z,11.14
2022-11-23T13:49:39.096Z,11.15
2022-11-23T13:52:32.697Z,11.12
2022-11-23T13:55:09.839Z,11.09
2022-11-23T13:57:39.480Z,11.11
2022-11-23T14:00:45.028Z,11.06
2022-11-23T14:03:50.287Z,10.80
2022-11-23T14:06:38.322Z,10.44
2022-11-23T14:09:17.256Z,10.05
2022-11-23T14:11:58.606Z,9.66
2022-11-23T14:14:34.692Z,9.36
2022-11-23T14:17:48.274Z,9.17
2022-11-23T14:20:29.037Z,9.00
2022-11-23T14:23:16.252Z,9.00
2022-11-23T14:25:56.977Z,9.08
2022-11-23T14:28:40.798Z,9.14
2022-11-23T14:31:24.103Z,9.09
2022-11-23T14:34:00.402Z,8.83
2022-11-23T14:36:42.464Z,8.54
2022-11-23T14:39:38.046Z,8.28
2022-11-23T14:42:13.054Z,8.01
2022-11-23T14:44:44.176Z,7.82
2022-11-23T14:47:13.395Z,7.66
2022-11-23T14:49:50.616Z,7.45
2022-11-23T14:52:23.690Z,7.30
2022-11-23T14:54:54.265Z,7.16
2022-11-23T14:57:25.872Z,7.05
2022-11-23T14:59:58.020Z,6.89
2022-11-23T15:02:35.037Z,6.75
2022-11-23T15:05:12.241Z,6.62
2022-11-23T15:07:49.036Z,6.52
2022-11-23T15:10:34.127Z,6.39
2022-11-23T15:13:02.587Z,6.27
2022-11-23T15:15:33.197Z,6.20
2022-11-23T15:18:08.915Z,6.09
2022-11-23T15:20:45.646Z,5.97
2022-11-23T15:23:21.943Z,5.88
2022-11-23T15:25:54.422Z,5.79
2022-11-23T15:28:28.032Z,5.72
2022-11-23T15:30:58.497Z,5.65
2022-11-23T15:33:27.754Z,5.61
2022-11-23T15:35:56.466Z,5.55
2022-11-23T15:38:26.277Z,5.49
2022-11-23T15:41:05.055Z,5.44
2022-11-23T15:43:33.481Z,5.39
2022-11-23T15:46:12.872Z,5.37
2022-11-23T15:48:41.465Z,5.32
2022-11-23T15:51:22.546Z,5.29
2022-11-23T15:53:54.080Z,5.28
2022-11-23T15:56:26.343Z,5.27
2022-11-23T15:58:55.457Z,5.22
2022-11-23T16:01:24.403Z,5.19
2022-11-23T16:03:55.772Z,5.16
2022-11-23T16:06:40.145Z,5.11
2022-11-23T16:09:54.908Z,5.06
2022-11-23T16:12:28.608Z,5.02
2022-11-23T16:14:58.474Z,4.97
2022-11-23T16:17:28.300Z,4.94
2022-11-23T16:19:58.763Z,4.90
2022-11-23T16:22:31.749Z,4.88
2022-11-23T16:25:06.788Z,4.87
2022-11-23T16:27:36.610Z,4.85
2022-11-23T16:30:06.541Z,4.83
2022-11-23T16:32:35.020Z,4.79
2022-11-23T16:35:18.106Z,4.76
2022-11-23T16:37:47.293Z,4.73
2022-11-23T16:40:17.276Z,4.70
2022-11-23T16:42:47.178Z,4.63
2022-11-23T16:45:15.656Z,4.64
2022-11-23T16:47:53.436Z,4.63
2022-11-23T16:50:22.189Z,4.62
2022-11-23T16:52:51.017Z,4.59
2022-11-23T16:55:21.023Z,4.53
2022-11-23T16:57:50.369Z,4.51
2022-11-23T17:00:22.345Z,4.49
2022-11-23T17:02:50.788Z,4.47
2022-11-23T17:05:21.353Z,4.46
2022-11-23T17:07:49.781Z,4.44
2022-11-23T17:10:20.135Z,4.42
2022-11-23T17:12:52.033Z,4.39
2022-11-23T17:15:23.356Z,4.38
2022-11-23T17:17:52.053Z,4.37
2022-11-23T17:20:20.566Z,4.36
2022-11-23T17:22:51.558Z,4.31
2022-11-23T17:25:21.349Z,4.29
2022-11-23T17:27:49.721Z,4.29
2022-11-23T17:30:22.415Z,4.27
2022-11-23T17:32:51.074Z,4.27
2022-11-23T17:35:19.689Z,4.27
2022-11-23T17:37:48.535Z,4.25
2022-11-23T17:40:18.128Z,4.24
2022-11-23T17:42:55.097Z,4.22
2022-11-23T17:45:23.580Z,4.21
2022-11-23T17:47:51.975Z,4.21
2022-11-23T17:50:20.459Z,4.20
2022-11-23T17:52:49.473Z,4.19
2022-11-23T17:55:18.087Z,4.18
2022-11-23T17:57:46.522Z,4.17
2022-11-23T18:00:20.765Z,4.16
2022-11-23T18:02:49.553Z,4.16
2022-11-23T18:05:21.819Z,4.15
2022-11-23T18:07:51.223Z,4.14
2022-11-23T18:10:20.202Z,4.12
2022-11-23T18:12:48.867Z,4.12
2022-11-23T18:15:18.747Z,4.10
2022-11-23T18:17:47.115Z,4.12
2022-11-23T18:20:15.896Z,4.11
2022-11-23T18:22:44.243Z,4.11
2022-11-23T18:25:12.578Z,4.08
2022-11-23T18:27:41.421Z,4.08
2022-11-23T18:30:10.841Z,4.06
2022-11-23T18:32:40.869Z,4.05
2022-11-23T18:35:10.692Z,4.05
2022-11-23T18:37:39.922Z,4.04
2022-11-23T18:40:09.355Z,4.04
2022-11-23T18:42:38.086Z,4.04
2022-11-23T18:45:09.127Z,4.02
2022-11-23T18:47:37.636Z,4.02
2022-11-23T18:50:09.572Z,4.00
2022-11-23T18:52:41.065Z,3.99
2022-11-23T18:55:09.753Z,4.00
2022-11-23T18:57:38.173Z,4.01
2022-11-23T19:00:08.184Z,4.02
2022-11-23T19:02:38.186Z,4.01
2022-11-23T19:05:13.877Z,4.03
2022-11-23T19:07:42.345Z,4.03
2022-11-23T19:10:11.605Z,4.04
2022-11-23T19:12:40.327Z,4.03
2022-11-23T19:15:09.781Z,4.03
2022-11-23T19:17:38.580Z,4.05
2022-11-23T19:20:10.600Z,4.08
2022-11-23T19:22:42.841Z,4.11
2022-11-23T19:25:11.390Z,4.16
2022-11-23T19:27:40.409Z,4.19
2022-11-23T19:30:10.008Z,4.23
2022-11-23T19:32:38.849Z,4.26
2022-11-23T19:35:08.013Z,4.26
2022-11-23T19:37:38.715Z,4.24
2022-11-23T19:40:10.812Z,4.19
2022-11-23T19:42:39.414Z,4.09
2022-11-23T19:45:08.865Z,4.02
2022-11-23T19:47:38.046Z,4.04
2022-11-23T19:50:07.469Z,4.04
2022-11-23T19:53:09.842Z,4.06
2022-11-23T19:55:27.414Z,4.11
2022-11-23T19:57:55.727Z,4.17
2022-11-23T20:00:24.059Z,4.22
2022-11-23T20:02:53.874Z,4.24
2022-11-23T20:05:22.183Z,4.12
2022-11-23T20:07:50.586Z,4.06
2022-11-23T20:10:19.110Z,4.02
2022-11-23T20:12:48.806Z,3.92
2022-11-23T20:15:17.457Z,3.88
2022-11-23T20:17:48.790Z,3.78
2022-11-23T20:20:17.324Z,3.67
2022-11-23T20:22:45.724Z,3.68
2022-11-23T20:25:14.466Z,3.77
2022-11-23T20:27:43.011Z,3.80
2022-11-23T20:30:13.348Z,3.87
2022-11-23T20:32:41.678Z,3.99
2022-11-23T20:35:10.474Z,4.04
2022-11-23T20:37:38.851Z,4.10
2022-11-23T20:40:08.304Z,4.19
2022-11-23T20:42:37.179Z,4.24
2022-11-23T20:45:06.873Z,4.32
2022-11-23T20:47:37.363Z,4.40
2022-11-23T20:50:07.098Z,4.42
2022-11-23T20:52:37.626Z,4.47
2022-11-23T20:55:07.180Z,4.52
2022-11-23T20:57:35.741Z,4.57
2022-11-23T21:00:05.645Z,4.60
2022-11-23T21:02:34.114Z,4.63
2022-11-23T21:05:03.928Z,4.66
2022-11-23T21:07:32.286Z,4.68
2022-11-23T21:10:00.690Z,4.71
2022-11-23T21:12:50.479Z,4.75
2022-11-23T21:15:19.076Z,4.76
2022-11-23T21:17:47.565Z,4.79
2022-11-23T21:20:17.765Z,4.80
2022-11-23T21:22:46.357Z,4.80
2022-11-23T21:25:14.657Z,4.82
2022-11-23T21:27:43.130Z,4.82
2022-11-23T21:30:12.645Z,4.83
2022-11-23T21:32:40.983Z,4.84
2022-11-23T21:35:09.757Z,4.85
2022-11-23T21:37:40.282Z,4.83
2022-11-23T21:40:11.123Z,4.83
2022-11-23T21:42:39.684Z,4.80
2022-11-23T21:45:09.560Z,4.75
2022-11-23T21:47:38.120Z,4.73
2022-11-23T21:50:08.550Z,4.70
2022-11-23T21:52:36.856Z,4.63
2022-11-23T21:55:08.037Z,4.60
2022-11-23T21:57:36.627Z,4.57
2022-11-23T22:00:05.660Z,4.56
2022-11-23T22:02:35.093Z,4.57
2022-11-23T22:05:04.073Z,4.59
2022-11-23T22:07:34.910Z,4.59
2022-11-23T22:10:03.215Z,4.54
2022-11-23T22:12:36.358Z,4.46
2022-11-23T22:15:05.016Z,4.41
2022-11-23T22:17:33.598Z,4.37
2022-11-23T22:20:02.106Z,4.36
2022-11-23T22:22:30.857Z,4.36
2022-11-23T22:24:59.107Z,4.36
2022-11-23T22:27:27.628Z,4.35
2022-11-23T22:29:57.386Z,4.33
2022-11-23T22:32:25.773Z,4.36
2022-11-23T22:34:54.168Z,4.37
2022-11-23T22:37:22.597Z,4.37
2022-11-23T22:39:51.229Z,4.39
2022-11-23T22:42:20.139Z,4.41
2022-11-23T22:44:48.497Z,4.44
2022-11-23T22:47:18.196Z,4.45
2022-11-23T22:49:46.830Z,4.45
2022-11-23T22:52:15.329Z,4.48
2022-11-23T22:54:43.723Z,4.48
2022-11-23T22:57:12.166Z,4.51
2022-11-23T22:59:40.581Z,4.58
2022-11-23T23:02:08.990Z,4.67
2022-11-23T23:04:38.888Z,4.78
2022-11-23T23:07:07.251Z,4.88
2022-11-23T23:09:35.806Z,5.02
2022-11-23T23:12:04.143Z,5.14
2022-11-23T23:14:32.669Z,5.23
2022-11-23T23:17:01.294Z,5.30
2022-11-23T23:19:29.921Z,5.40
2022-11-23T23:21:59.597Z,5.50
2022-11-23T23:24:51.247Z,5.62
2022-11-23T23:27:19.568Z,5.70
2022-11-23T23:29:47.852Z,5.81
2022-11-23T23:32:16.913Z,5.87
2022-11-23T23:34:45.233Z,5.94
2022-11-23T23:37:14.940Z,6.02
2022-11-23T23:39:45.814Z,6.10
2022-11-23T23:42:14.248Z,6.18
2022-11-23T23:44:43.251Z,6.28
2022-11-23T23:47:11.586Z,6.37
2022-11-23T23:49:39.894Z,6.44
2022-11-23T23:52:08.199Z,6.54
2022-11-23T23:54:37.927Z,6.62
2022-11-23T23:57:06.581Z,6.68
2022-11-23T23:59:34.919Z,6.76
